• Join FlightAware (Why Join?)
  • Login
  • US Flag 
01:37PM EDT


 

Airport Tracker/Info


-or-


 

Live Flight TrackerFlight Track Log ✈ SWA2058 ✈ 06-Jul-2013 ✈ KORF - KJAX

Flight Track Log - Related Links

Times and Time Zones

All times are in EDT time to prevent confusion due to time zone crossing. See the SWA2058 flight status page for this flight to view local times or setup timezone preferences in your user account.

Time Position Orientation Groundspeed Altitude Reporting Facility
EDT Latitude Longitude Course Direction KTS MPH feet Rate Location/Type
03:12PM 36.8300 -76.2639 217° Southwest 227 261 3,200  Level Washington Center
03:13PM 36.7736 -76.2947 204° Southwest 268 308 5,200 3,000 Climbing Washington Center
03:14PM 36.7003 -76.3278 200° South 273 314 9,100 2,880 Climbing Washington Center
03:15PM 36.6083 -76.3708 201° Southwest 302 348 11,700 2,520 Climbing Washington Center
03:16PM 36.5183 -76.4139 201° Southwest 330 380 14,800 2,880 Climbing Washington Center
03:17PM 36.4200 -76.4619 201° Southwest 353 406 17,500 2,640 Climbing Washington Center
03:18PM 36.3278 -76.5125 204° Southwest 371 427 20,100 2,520 Climbing Washington Center
03:19PM 36.2272 -76.5678 204° Southwest 385 443 22,600 2,400 Climbing Washington Center
03:20PM 36.1267 -76.6206 203° Southwest 391 450 24,900 2,160 Climbing Washington Center
03:21PM 36.0217 -76.6783 204° Southwest 397 457 26,900 1,800 Climbing Washington Center
03:22PM 35.9169 -76.7333 203° Southwest 410 472 28,600 1,560 Climbing Washington Center
03:23PM 35.8119 -76.8061 209° Southwest 421 484 30,000 1,380 Climbing Washington Center
03:24PM 35.7253 -76.9122 225° Southwest 434 499 31,400 1,620 Climbing Washington Center
03:25PM 35.6364 -77.0131 223° Southwest 441 507 33,300 1,620 Climbing Washington Center
03:26PM 35.5603 -77.1036 224° Southwest 441 507 34,700 1,440 Climbing Washington Center
03:27PM 35.4714 -77.2039 223° Southwest 436 502 36,200 1,380 Climbing Washington Center
03:28PM 35.3822 -77.3042 223° Southwest 436 502 37,500 840 Climbing Washington Center
03:29PM 35.2931 -77.4039 222° Southwest 436 502 38,000 240 Climbing Washington Center
03:30PM 35.2061 -77.5061 224° Southwest 436 502 38,000  Level Washington Center
03:31PM 35.1189 -77.6056 223° Southwest 431 496 38,000  Level Washington Center
03:32PM 35.0317 -77.7025 222° Southwest 436 502 38,000  Level Washington Center
03:33PM 34.9422 -77.8039 223° Southwest 436 502 38,000  Level Washington Center
03:34PM 34.8547 -77.9003 222° Southwest 436 502 38,000  Level Washington Center
03:35PM 34.7608 -78.0139 225° Southwest 436 502 38,000  Level Washington Center
03:36PM 34.6731 -78.1147 223° Southwest 436 502 38,000  Level Washington Center
03:37PM 34.5856 -78.2131 223° Southwest 431 496 38,000  Level Washington Center
03:39PM 34.4278 -78.3894 223° Southwest 436 502 38,000  Level Jacksonville Center
03:40PM 34.3394 -78.4869 222° Southwest 436 502 38,000  Level Jacksonville Center
03:41PM 34.2489 -78.5844 222° Southwest 436 502 38,000  Level Jacksonville Center
03:42PM 34.1606 -78.6817 222° Southwest 436 502 38,000  Level Jacksonville Center
03:43PM 34.0717 -78.7761 221° Southwest 436 502 38,000  Level Jacksonville Center
03:44PM 33.9811 -78.8731 222° Southwest 436 502 38,000  Level Jacksonville Center
03:45PM 33.8944 -78.9697 223° Southwest 436 502 38,000  Level Jacksonville Center
03:46PM 33.8056 -79.0661 222° Southwest 436 502 38,000  Level Jacksonville Center
03:47PM 33.7167 -79.1622 222° Southwest 431 496 38,000  Level Jacksonville Center
03:48PM 33.6417 -79.2403 221° Southwest 426 490 38,000  Level Jacksonville Center
03:49PM 33.5506 -79.3364 221° Southwest 426 490 38,000 -300 Level Jacksonville Center
03:50PM 33.4636 -79.4344 223° Southwest 426 490 37,500 -720 Descending Jacksonville Center
03:51PM 33.3761 -79.5247 221° Southwest 426 490 36,600 -960 Descending Jacksonville Center
03:52PM 33.2869 -79.6225 223° Southwest 426 490 35,600 -1,020 Descending Jacksonville Center
03:53PM 33.1994 -79.7153 222° Southwest 426 490 34,600 -960 Descending Jacksonville Center
03:54PM 33.1081 -79.8103 221° Southwest 432 497 33,700 -960 Descending Jacksonville Center
03:55PM 33.0183 -79.9050 222° Southwest 432 497 32,700 -1,020 Descending Jacksonville Center
03:56PM 32.9247 -80.0019 221° Southwest 432 497 31,700 -960 Descending Jacksonville Center
03:57PM 32.8264 -80.0892 217° Southwest 437 503 30,800 -900 Descending Jacksonville Center
03:58PM 32.7156 -80.1767 214° Southwest 442 509 30,000 -420 Descending Jacksonville Center
03:59PM 32.6108 -80.2586 213° Southwest 448 516 30,000  Level Jacksonville Center
04:00PM 32.5103 -80.3381 214° Southwest 443 510 30,000  Level Jacksonville Center
04:01PM 32.4097 -80.4194 214° Southwest 443 510 30,000  Level Jacksonville Center
04:02PM 32.3047 -80.4986 213° Southwest 443 510 30,000  Level Jacksonville Center
04:03PM 32.1997 -80.5775 212° Southwest 443 510 30,000  Level Jacksonville Center
04:04PM 32.1092 -80.6483 214° Southwest 449 517 30,000 -180 Level Jacksonville Center
04:05PM 31.9936 -80.7369 213° Southwest 456 525 29,700 -1,200 Descending Jacksonville Center
04:06PM 31.8947 -80.8128 213° Southwest 443 510 27,600 -2,280 Descending Jacksonville Center
04:07PM 31.8081 -80.8781 213° Southwest 431 496 25,200 -2,100 Descending Jacksonville Center
04:08PM 31.7069 -80.9536 212° Southwest 405 466 23,500 -1,320 Descending Jacksonville Center
04:09PM 31.6161 -81.0214 212° Southwest 393 452 22,600 -960 Descending Jacksonville Center
04:10PM 31.5378 -81.0814 213° Southwest 385 443 21,600 -1,620 Descending Jacksonville Center
04:11PM 31.4428 -81.1539 213° Southwest 385 443 19,400 -1,920 Descending Jacksonville Center
04:12PM 31.3578 -81.2164 212° Southwest 374 430 17,800 -1,860 Descending Jacksonville Center
04:13PM 31.2856 -81.2833 218° Southwest 374 430 15,700 -2,040 Descending Jacksonville Center
04:14PM 31.2261 -81.3669 230° Southwest 355 409 13,800 -1,920 Descending Jacksonville Center
04:15PM 31.1517 -81.4336 217° Southwest 344 396 11,900 -1,740 Descending Jacksonville Center
04:16PM 31.0933 -81.4369 183° South 310 357 11,000 -1,140 Descending Jacksonville Center
04:17PM 31.0083 -81.4867 207° Southwest 286 329 10,000 -540 Descending Jacksonville Center
04:18PM 30.9356 -81.5289 206° Southwest 293 337 9,900 -840 Descending Jacksonville Center
04:19PM 30.8672 -81.5711 208° Southwest 282 325 8,400 -1,500 Descending Jacksonville Center
04:20PM 30.8008 -81.6156 210° Southwest 277 319 6,900 -1,320 Descending Jacksonville Center
04:21PM 30.7344 -81.6550 207° Southwest 266 306 5,800 -1,020 Descending Jacksonville Center
04:22PM 30.6806 -81.6872 207° Southwest 208 239 4,900 -1,140 Descending Jacksonville Center
04:23PM 30.6286 -81.7192 208° Southwest 200 230 3,600 -1,200 Descending Jacksonville Center
04:24PM 30.5786 -81.7489 207° Southwest 187 215 2,500 -1,020 Descending Jacksonville Center
04:25PM 30.5414 -81.7661 202° Southwest 142 163 1,600 -840 Descending Jacksonville Center
04:26PM 30.5181 -81.7400 136° Southeast 116 133 900 -780 Descending Jacksonville Center
04:27PM 30.4928 -81.7089 133° Southeast 136 157 200 -720 Descending Jacksonville Center
04:29PM 30.4941 -81.6879 100° East  Level Estimated
04:36PM 30.4941 -81.6879 311° West  Level Estimated
04:37PM 30.4941 -81.6879 311° West  Level Estimated
04:38PM 30.4941 -81.6879 311° West  Level Estimated
04:39PM 30.4941 -81.6879 311° West  Level Estimated
04:40PM 30.4941 -81.6879 311° West  Level Estimated
04:41PM 30.4941 -81.6879 311° West  Level Estimated
04:42PM 30.4941 -81.6879 311° West  Level Estimated
04:43PM 30.4941 -81.6879 311° West  Level Estimated
04:44PM 30.4941 -81.6879 311° West  Level Estimated
04:45PM 30.4941 -81.6879 311° West  Level Estimated
04:46PM 30.4941 -81.6879 311° West  Level Estimated
04:47PM 30.4941 -81.6879 311° West  Level Estimated